sensor_id;sensor_type;location;lat;lon;timestamp;pressure;altitude;pressure_sealevel;temperature;humidity
63321;BME280;49449;48.800;9.534;2022-08-11T00:02:25;98983.56;;;20.31;27.68
63321;BME280;49449;48.800;9.534;2022-08-11T00:04:55;98982.75;;;20.31;27.64
63321;BME280;49449;48.800;9.534;2022-08-11T00:07:24;98985.22;;;20.27;27.89
63321;BME280;49449;48.800;9.534;2022-08-11T00:09:55;98977.69;;;20.24;28.12
63321;BME280;49449;48.800;9.534;2022-08-11T00:12:23;98980.38;;;20.24;28.08
63321;BME280;49449;48.800;9.534;2022-08-11T00:14:56;98982.03;;;20.20;27.93
63321;BME280;49449;48.800;9.534;2022-08-11T00:17:27;98982.34;;;20.13;28.30
63321;BME280;49449;48.800;9.534;2022-08-11T00:20:01;98980.22;;;20.10;28.33
63321;BME280;49449;48.800;9.534;2022-08-11T00:22:31;98983.69;;;20.11;28.36
63321;BME280;49449;48.800;9.534;2022-08-11T00:25:07;98981.06;;;20.05;27.82
63321;BME280;49449;48.800;9.534;2022-08-11T00:27:38;98978.16;;;20.02;28.02
63321;BME280;49449;48.800;9.534;2022-08-11T00:30:08;98978.72;;;19.94;27.91
63321;BME280;49449;48.800;9.534;2022-08-11T00:32:42;98971.50;;;19.89;28.12
63321;BME280;49449;48.800;9.534;2022-08-11T00:35:12;98987.59;;;19.89;27.91
63321;BME280;49449;48.800;9.534;2022-08-11T00:37:44;98981.47;;;19.83;28.34
63321;BME280;49449;48.800;9.534;2022-08-11T00:40:23;98996.53;;;19.79;28.12
63321;BME280;49449;48.800;9.534;2022-08-11T00:43:00;98993.03;;;19.79;28.06
63321;BME280;49449;48.800;9.534;2022-08-11T00:45:37;98995.69;;;19.79;28.46
63321;BME280;49449;48.800;9.534;2022-08-11T00:48:14;98997.06;;;19.76;28.41
63321;BME280;49449;48.800;9.534;2022-08-11T00:51:04;98995.75;;;19.74;28.19
63321;BME280;49449;48.800;9.534;2022-08-11T00:53:44;98996.31;;;19.71;28.62
63321;BME280;49449;48.800;9.534;2022-08-11T00:56:36;98993.66;;;19.65;28.55
63321;BME280;49449;48.800;9.534;2022-08-11T00:59:35;98992.84;;;19.60;29.02
63321;BME280;49449;48.800;9.534;2022-08-11T01:02:16;98982.16;;;19.55;28.64
63321;BME280;49449;48.800;9.534;2022-08-11T01:08:19;98991.84;;;19.45;29.01
63321;BME280;49449;48.800;9.534;2022-08-11T01:11:20;98994.25;;;19.42;29.10
63321;BME280;49449;48.800;9.534;2022-08-11T01:14:19;98993.47;;;19.41;29.26
63321;BME280;49449;48.800;9.534;2022-08-11T01:17:03;98992.16;;;19.39;29.45
63321;BME280;49449;48.800;9.534;2022-08-11T01:19:50;98984.13;;;19.34;29.52
63321;BME280;49449;48.800;9.534;2022-08-11T01:22:43;98983.09;;;19.29;29.14
63321;BME280;49449;48.800;9.534;2022-08-11T01:25:55;98987.63;;;19.29;29.18
63321;BME280;49449;48.800;9.534;2022-08-11T01:32:01;98992.50;;;19.17;29.30
63321;BME280;49449;48.800;9.534;2022-08-11T01:44:51;98990.69;;;18.86;29.40
63321;BME280;49449;48.800;9.534;2022-08-11T01:47:32;98996.56;;;18.83;29.89
63321;BME280;49449;48.800;9.534;2022-08-11T01:50:34;98985.09;;;18.78;29.79
63321;BME280;49449;48.800;9.534;2022-08-11T01:53:15;98988.59;;;18.68;30.15
63321;BME280;49449;48.800;9.534;2022-08-11T01:55:51;98983.25;;;18.58;30.05
63321;BME280;49449;48.800;9.534;2022-08-11T01:58:30;98974.72;;;18.56;30.03
63321;BME280;49449;48.800;9.534;2022-08-11T02:01:09;98970.69;;;18.48;29.97
63321;BME280;49449;48.800;9.534;2022-08-11T02:03:45;98971.78;;;18.42;30.09
63321;BME280;49449;48.800;9.534;2022-08-11T02:06:25;98967.22;;;18.47;30.15
63321;BME280;49449;48.800;9.534;2022-08-11T02:09:22;98967.22;;;18.47;30.42
63321;BME280;49449;48.800;9.534;2022-08-11T02:11:57;98973.09;;;18.49;30.60
63321;BME280;49449;48.800;9.534;2022-08-11T02:14:28;98978.19;;;18.51;30.17
63321;BME280;49449;48.800;9.534;2022-08-11T02:17:14;98974.72;;;18.56;30.49
63321;BME280;49449;48.800;9.534;2022-08-11T02:19:52;98972.81;;;18.61;29.91
63321;BME280;49449;48.800;9.534;2022-08-11T02:22:50;98972.81;;;18.56;30.45
63321;BME280;49449;48.800;9.534;2022-08-11T02:25:45;98970.69;;;18.53;30.29
63321;BME280;49449;48.800;9.534;2022-08-11T02:28:21;98971.47;;;18.53;30.06
63321;BME280;49449;48.800;9.534;2022-08-11T02:30:59;98966.69;;;18.50;30.31
63321;BME280;49449;48.800;9.534;2022-08-11T02:33:52;98964.00;;;18.45;30.31
63321;BME280;49449;48.800;9.534;2022-08-11T02:36:32;98958.13;;;18.43;30.50
63321;BME280;49449;48.800;9.534;2022-08-11T02:39:09;98954.63;;;18.43;30.32
63321;BME280;49449;48.800;9.534;2022-08-11T02:41:44;98956.00;;;18.40;30.76
63321;BME280;49449;48.800;9.534;2022-08-11T02:44:37;98956.78;;;18.35;30.59
63321;BME280;49449;48.800;9.534;2022-08-11T02:47:23;98960.28;;;18.26;30.66
63321;BME280;49449;48.800;9.534;2022-08-11T02:50:02;98961.88;;;18.11;30.94
63321;BME280;49449;48.800;9.534;2022-08-11T02:52:36;98955.97;;;18.09;30.90
63321;BME280;49449;48.800;9.534;2022-08-11T02:55:26;98958.91;;;18.03;30.99
63321;BME280;49449;48.800;9.534;2022-08-11T02:58:02;98966.66;;;18.04;31.12
63321;BME280;49449;48.800;9.534;2022-08-11T03:00:46;98970.94;;;18.05;31.17
63321;BME280;49449;48.800;9.534;2022-08-11T03:03:23;98964.00;;;17.94;31.11
63321;BME280;49449;48.800;9.534;2022-08-11T03:06:01;98966.66;;;17.84;31.42
63321;BME280;49449;48.800;9.534;2022-08-11T03:08:46;98969.31;;;17.84;31.53
63321;BME280;49449;48.800;9.534;2022-08-11T03:11:29;98972.53;;;17.86;31.23
63321;BME280;49449;48.800;9.534;2022-08-11T03:14:28;98971.44;;;17.76;31.51
63321;BME280;49449;48.800;9.534;2022-08-11T03:17:24;98965.81;;;17.68;31.59
63321;BME280;49449;48.800;9.534;2022-08-11T03:20:05;98975.16;;;17.70;31.70
63321;BME280;49449;48.800;9.534;2022-08-11T03:22:48;98967.13;;;17.65;31.80
63321;BME280;49449;48.800;9.534;2022-08-11T03:25:23;98971.41;;;17.61;32.04
63321;BME280;49449;48.800;9.534;2022-08-11T03:28:03;98971.66;;;17.59;31.98
63321;BME280;49449;48.800;9.534;2022-08-11T03:30:42;98973.28;;;17.60;32.02
63321;BME280;49449;48.800;9.534;2022-08-11T03:33:18;98966.03;;;17.56;31.90
63321;BME280;49449;48.800;9.534;2022-08-11T03:36:19;98963.91;;;17.58;31.91
63321;BME280;49449;48.800;9.534;2022-08-11T03:39:01;98977.81;;;17.55;32.00
63321;BME280;49449;48.800;9.534;2022-08-11T03:41:35;98982.28;;;17.49;32.19
63321;BME280;49449;48.800;9.534;2022-08-11T03:44:24;98979.34;;;17.46;32.23
63321;BME280;49449;48.800;9.534;2022-08-11T03:47:15;98976.94;;;17.39;32.33
63321;BME280;49449;48.800;9.534;2022-08-11T03:49:56;98983.88;;;17.40;32.36
63321;BME280;49449;48.800;9.534;2022-08-11T03:52:42;98975.56;;;17.36;32.28
63321;BME280;49449;48.800;9.534;2022-08-11T03:55:22;98980.38;;;17.34;32.34
63321;BME280;49449;48.800;9.534;2022-08-11T03:58:20;98981.97;;;17.35;32.38
63321;BME280;49449;48.800;9.534;2022-08-11T04:01:18;98983.31;;;17.38;32.35
63321;BME280;49449;48.800;9.534;2022-08-11T04:04:18;98976.63;;;17.30;32.40
63321;BME280;49449;48.800;9.534;2022-08-11T04:07:11;98982.47;;;17.22;32.98
63321;BME280;49449;48.800;9.534;2022-08-11T04:10:13;98984.63;;;17.25;32.41
63321;BME280;49449;48.800;9.534;2022-08-11T04:15:48;98982.34;;;17.01;33.09
63321;BME280;49449;48.800;9.534;2022-08-11T04:21:56;98987.66;;;16.96;33.04
63321;BME280;49449;48.800;9.534;2022-08-11T04:24:57;98986.59;;;16.92;33.19
63321;BME280;49449;48.800;9.534;2022-08-11T04:27:58;98981.78;;;16.94;33.00
63321;BME280;49449;48.800;9.534;2022-08-11T04:30:49;98980.50;;;16.97;32.98
63321;BME280;49449;48.800;9.534;2022-08-11T04:33:39;98982.34;;;16.96;32.91
63321;BME280;49449;48.800;9.534;2022-08-11T04:39:42;98989.09;;;17.09;32.84
63321;BME280;49449;48.800;9.534;2022-08-11T04:45:39;98988.91;;;17.31;32.70
63321;BME280;49449;48.800;9.534;2022-08-11T04:48:25;98991.88;;;17.40;32.65
63321;BME280;49449;48.800;9.534;2022-08-11T04:51:36;98992.72;;;17.51;32.50
63321;BME280;49449;48.800;9.534;2022-08-11T04:54:46;98989.84;;;17.63;32.13
63321;BME280;49449;48.800;9.534;2022-08-11T04:57:47;98987.47;;;17.71;32.02
63321;BME280;49449;48.800;9.534;2022-08-11T05:00:39;98986.41;;;17.83;31.91
63321;BME280;49449;48.800;9.534;2022-08-11T05:04:10;98987.78;;;17.95;31.65
63321;BME280;49449;48.800;9.534;2022-08-11T05:10:01;98994.47;;;18.19;31.28
63321;BME280;49449;48.800;9.534;2022-08-11T05:12:40;98998.00;;;18.29;30.82
63321;BME280;49449;48.800;9.534;2022-08-11T05:15:12;98986.19;;;18.41;30.82
63321;BME280;49449;48.800;9.534;2022-08-11T05:18:02;98992.09;;;18.53;30.86
63321;BME280;49449;48.800;9.534;2022-08-11T05:20:53;98998.22;;;18.64;31.62
63321;BME280;49449;48.800;9.534;2022-08-11T05:23:45;98998.47;;;18.78;31.00
63321;BME280;49449;48.800;9.534;2022-08-11T05:26:43;98996.59;;;18.94;30.29
63321;BME280;49449;48.800;9.534;2022-08-11T05:29:42;98992.25;;;19.13;30.17
63321;BME280;49449;48.800;9.534;2022-08-11T05:32:34;99000.75;;;19.30;29.69
63321;BME280;49449;48.800;9.534;2022-08-11T05:35:26;98985.69;;;19.45;29.26
63321;BME280;49449;48.800;9.534;2022-08-11T05:37:56;98992.31;;;19.63;29.20
63321;BME280;49449;48.800;9.534;2022-08-11T05:40:49;98995.16;;;19.82;29.30
63321;BME280;49449;48.800;9.534;2022-08-11T05:43:41;98986.69;;;20.04;28.41
63321;BME280;49449;48.800;9.534;2022-08-11T05:46:28;98991.69;;;20.16;28.92
63321;BME280;49449;48.800;9.534;2022-08-11T05:49:14;98985.47;;;20.26;28.45
63321;BME280;49449;48.800;9.534;2022-08-11T05:52:02;98991.56;;;20.36;28.32
63321;BME280;49449;48.800;9.534;2022-08-11T05:54:49;98993.59;;;20.50;28.36
63321;BME280;49449;48.800;9.534;2022-08-11T05:57:36;98991.28;;;20.67;27.95
63321;BME280;49449;48.800;9.534;2022-08-11T06:00:07;98991.34;;;20.86;27.84
63321;BME280;49449;48.800;9.534;2022-08-11T06:02:40;98994.47;;;20.98;27.45
63321;BME280;49449;48.800;9.534;2022-08-11T06:05:10;98991.38;;;21.10;27.35
63321;BME280;49449;48.800;9.534;2022-08-11T06:07:39;98999.09;;;21.17;27.19
63321;BME280;49449;48.800;9.534;2022-08-11T06:10:08;98992.38;;;21.39;26.96
63321;BME280;49449;48.800;9.534;2022-08-11T06:12:37;98992.47;;;21.52;26.94
63321;BME280;49449;48.800;9.534;2022-08-11T06:15:10;98991.78;;;21.66;26.66
63321;BME280;49449;48.800;9.534;2022-08-11T06:17:43;98995.94;;;21.77;26.47
63321;BME280;49449;48.800;9.534;2022-08-11T06:20:13;98995.72;;;21.92;26.31
63321;BME280;49449;48.800;9.534;2022-08-11T06:22:44;98990.56;;;22.10;25.94
63321;BME280;49449;48.800;9.534;2022-08-11T06:25:16;98988.06;;;22.19;26.19
63321;BME280;49449;48.800;9.534;2022-08-11T06:27:45;98987.81;;;22.34;25.75
63321;BME280;49449;48.800;9.534;2022-08-11T06:30:15;98987.34;;;22.46;25.73
63321;BME280;49449;48.800;9.534;2022-08-11T06:32:45;98978.47;;;22.59;25.73
63321;BME280;49449;48.800;9.534;2022-08-11T06:35:22;98978.19;;;22.75;25.71
63321;BME280;49449;48.800;9.534;2022-08-11T06:38:02;98971.34;;;22.82;25.30
63321;BME280;49449;48.800;9.534;2022-08-11T06:40:39;98982.53;;;22.90;25.26
63321;BME280;49449;48.800;9.534;2022-08-11T06:43:15;98973.66;;;22.89;25.56
63321;BME280;49449;48.800;9.534;2022-08-11T06:45:52;98984.53;;;22.98;25.10
63321;BME280;49449;48.800;9.534;2022-08-11T06:48:22;98980.13;;;23.02;25.40
63321;BME280;49449;48.800;9.534;2022-08-11T06:50:52;98973.75;;;23.12;25.20
63321;BME280;49449;48.800;9.534;2022-08-11T06:53:42;98982.63;;;23.12;25.24
63321;BME280;49449;48.800;9.534;2022-08-11T06:56:12;98967.84;;;23.23;25.18
63321;BME280;49449;48.800;9.534;2022-08-11T06:58:59;98974.34;;;23.36;24.89
63321;BME280;49449;48.800;9.534;2022-08-11T07:01:56;98968.53;;;23.43;24.64
63321;BME280;49449;48.800;9.534;2022-08-11T07:04:31;98976.59;;;23.57;24.71
63321;BME280;49449;48.800;9.534;2022-08-11T07:07:17;98975.97;;;23.60;24.42
63321;BME280;49449;48.800;9.534;2022-08-11T07:10:32;98971.47;;;23.69;24.00
63321;BME280;49449;48.800;9.534;2022-08-11T07:13:26;98976.31;;;23.81;24.04
63321;BME280;49449;48.800;9.534;2022-08-11T07:16:15;98976.59;;;23.79;24.08
63321;BME280;49449;48.800;9.534;2022-08-11T07:18:46;98971.59;;;23.87;23.89
63321;BME280;49449;48.800;9.534;2022-08-11T07:21:34;98978.38;;;23.98;24.03
63321;BME280;49449;48.800;9.534;2022-08-11T07:24:24;98972.56;;;24.05;24.17
63321;BME280;49449;48.800;9.534;2022-08-11T07:27:14;98971.63;;;24.09;23.66
63321;BME280;49449;48.800;9.534;2022-08-11T07:30:16;98965.78;;;24.16;23.62
63321;BME280;49449;48.800;9.534;2022-08-11T07:32:49;98961.41;;;24.29;23.52
63321;BME280;49449;48.800;9.534;2022-08-11T07:35:21;98960.19;;;24.35;23.22
63321;BME280;49449;48.800;9.534;2022-08-11T07:37:56;98958.00;;;24.14;22.61
63321;BME280;49449;48.800;9.534;2022-08-11T07:40:25;98954.78;;;23.67;23.35
63321;BME280;49449;48.800;9.534;2022-08-11T07:42:54;98953.63;;;23.82;23.39
63321;BME280;49449;48.800;9.534;2022-08-11T07:45:23;98955.84;;;23.80;23.17
63321;BME280;49449;48.800;9.534;2022-08-11T07:48:10;98948.03;;;23.56;23.39
63321;BME280;49449;48.800;9.534;2022-08-11T07:50:58;98955.19;;;23.74;23.62
63321;BME280;49449;48.800;9.534;2022-08-11T07:53:45;98955.41;;;23.64;23.28
63321;BME280;49449;48.800;9.534;2022-08-11T07:56:15;98953.94;;;23.80;22.62
63321;BME280;49449;48.800;9.534;2022-08-11T07:58:45;98952.25;;;23.71;23.20
63321;BME280;49449;48.800;9.534;2022-08-11T08:01:33;98955.09;;;23.88;23.21
63321;BME280;49449;48.800;9.534;2022-08-11T08:04:19;98948.25;;;23.46;22.78
63321;BME280;49449;48.800;9.534;2022-08-11T08:07:06;98954.75;;;23.31;23.61
63321;BME280;49449;48.800;9.534;2022-08-11T08:09:52;98952.19;;;23.39;23.27
63321;BME280;49449;48.800;9.534;2022-08-11T08:12:39;98939.56;;;23.49;22.92
63321;BME280;49449;48.800;9.534;2022-08-11T08:15:25;98945.84;;;23.44;22.57
63321;BME280;49449;48.800;9.534;2022-08-11T08:18:12;98933.78;;;23.78;22.62
63321;BME280;49449;48.800;9.534;2022-08-11T08:20:44;98934.53;;;23.92;22.54
63321;BME280;49449;48.800;9.534;2022-08-11T08:23:14;98931.00;;;24.14;21.98
63321;BME280;49449;48.800;9.534;2022-08-11T08:25:44;98949.91;;;23.69;22.34
63321;BME280;49449;48.800;9.534;2022-08-11T08:28:14;98936.97;;;23.80;22.31
63321;BME280;49449;48.800;9.534;2022-08-11T08:30:43;98943.44;;;23.79;22.29
63321;BME280;49449;48.800;9.534;2022-08-11T08:33:17;98939.28;;;24.18;21.70
63321;BME280;49449;48.800;9.534;2022-08-11T08:35:47;98921.28;;;24.36;21.52
63321;BME280;49449;48.800;9.534;2022-08-11T08:38:18;98929.78;;;24.21;21.17
63321;BME280;49449;48.800;9.534;2022-08-11T08:40:50;98935.22;;;23.98;21.69
63321;BME280;49449;48.800;9.534;2022-08-11T08:43:21;98936.84;;;23.85;21.67
63321;BME280;49449;48.800;9.534;2022-08-11T08:45:53;98927.88;;;24.21;21.21
63321;BME280;49449;48.800;9.534;2022-08-11T08:48:23;98939.44;;;24.44;21.26
63321;BME280;49449;48.800;9.534;2022-08-11T08:50:55;98938.22;;;24.50;21.37
63321;BME280;49449;48.800;9.534;2022-08-11T08:53:45;98939.94;;;24.15;21.43
63321;BME280;49449;48.800;9.534;2022-08-11T08:56:15;98950.25;;;23.76;21.56
63321;BME280;49449;48.800;9.534;2022-08-11T08:58:45;98951.59;;;23.65;21.00
63321;BME280;49449;48.800;9.534;2022-08-11T09:01:15;98947.53;;;23.54;21.05
63321;BME280;49449;48.800;9.534;2022-08-11T09:03:47;98941.63;;;24.11;21.04
63321;BME280;49449;48.800;9.534;2022-08-11T09:06:16;98934.72;;;23.96;20.82
63321;BME280;49449;48.800;9.534;2022-08-11T09:08:46;98936.00;;;23.98;20.74
63321;BME280;49449;48.800;9.534;2022-08-11T09:11:15;98956.66;;;24.03;21.03
63321;BME280;49449;48.800;9.534;2022-08-11T09:14:02;98954.28;;;24.02;20.80
63321;BME280;49449;48.800;9.534;2022-08-11T09:16:32;98936.66;;;24.04;20.37
63321;BME280;49449;48.800;9.534;2022-08-11T09:19:01;98941.38;;;23.98;20.27
63321;BME280;49449;48.800;9.534;2022-08-11T09:21:30;98936.09;;;24.16;20.97
63321;BME280;49449;48.800;9.534;2022-08-11T09:24:01;98940.59;;;23.98;20.49
63321;BME280;49449;48.800;9.534;2022-08-11T09:26:51;98923.03;;;24.09;20.64
63321;BME280;49449;48.800;9.534;2022-08-11T09:29:30;98933.38;;;24.38;20.24
63321;BME280;49449;48.800;9.534;2022-08-11T09:31:58;98936.50;;;24.32;19.95
63321;BME280;49449;48.800;9.534;2022-08-11T09:34:27;98938.56;;;24.58;19.44
63321;BME280;49449;48.800;9.534;2022-08-11T09:36:55;98948.72;;;24.61;19.65
63321;BME280;49449;48.800;9.534;2022-08-11T09:39:44;98940.47;;;24.57;19.39
63321;BME280;49449;48.800;9.534;2022-08-11T09:42:32;98931.44;;;24.62;19.57
63321;BME280;49449;48.800;9.534;2022-08-11T09:45:19;98941.41;;;24.52;19.50
63321;BME280;49449;48.800;9.534;2022-08-11T09:47:47;98936.00;;;24.52;19.13
63321;BME280;49449;48.800;9.534;2022-08-11T09:50:15;98929.69;;;24.03;19.20
63321;BME280;49449;48.800;9.534;2022-08-11T09:52:44;98925.19;;;24.21;19.50
63321;BME280;49449;48.800;9.534;2022-08-11T09:55:30;98925.78;;;24.18;19.15
63321;BME280;49449;48.800;9.534;2022-08-11T09:57:59;98935.28;;;24.38;19.68
63321;BME280;49449;48.800;9.534;2022-08-11T10:00:43;98930.09;;;24.19;19.99
63321;BME280;49449;48.800;9.534;2022-08-11T10:03:15;98927.78;;;24.04;19.53
63321;BME280;49449;48.800;9.534;2022-08-11T10:05:46;98931.25;;;24.04;20.11
63321;BME280;49449;48.800;9.534;2022-08-11T10:08:42;98914.88;;;24.54;19.60
63321;BME280;49449;48.800;9.534;2022-08-11T10:11:13;98907.34;;;24.83;18.88
63321;BME280;49449;48.800;9.534;2022-08-11T10:13:44;98915.59;;;24.78;19.19
63321;BME280;49449;48.800;9.534;2022-08-11T10:16:33;98920.66;;;24.70;17.84
63321;BME280;49449;48.800;9.534;2022-08-11T10:19:03;98911.44;;;24.63;18.41
63321;BME280;49449;48.800;9.534;2022-08-11T10:21:39;98926.16;;;23.94;18.45
63321;BME280;49449;48.800;9.534;2022-08-11T10:24:09;98912.38;;;24.35;18.16
63321;BME280;49449;48.800;9.534;2022-08-11T10:26:57;98921.44;;;24.71;18.16
63321;BME280;49449;48.800;9.534;2022-08-11T10:29:32;98913.50;;;24.74;17.97
63321;BME280;49449;48.800;9.534;2022-08-11T10:32:20;98904.03;;;24.94;17.74
63321;BME280;49449;48.800;9.534;2022-08-11T10:35:06;98906.00;;;25.20;17.21
63321;BME280;49449;48.800;9.534;2022-08-11T10:37:38;98899.09;;;24.88;16.58
63321;BME280;49449;48.800;9.534;2022-08-11T10:40:09;98897.94;;;24.71;17.45
63321;BME280;49449;48.800;9.534;2022-08-11T10:42:42;98890.81;;;24.84;17.70
63321;BME280;49449;48.800;9.534;2022-08-11T10:45:28;98896.16;;;24.58;17.46
63321;BME280;49449;48.800;9.534;2022-08-11T10:48:15;98892.00;;;24.61;17.96
63321;BME280;49449;48.800;9.534;2022-08-11T10:50:47;98886.56;;;25.01;17.39
63321;BME280;49449;48.800;9.534;2022-08-11T10:53:33;98877.88;;;25.47;16.52
63321;BME280;49449;48.800;9.534;2022-08-11T10:56:19;98872.44;;;25.65;16.14
63321;BME280;49449;48.800;9.534;2022-08-11T10:59:07;98858.69;;;25.96;15.89
63321;BME280;49449;48.800;9.534;2022-08-11T11:01:37;98857.94;;;25.87;16.13
63321;BME280;49449;48.800;9.534;2022-08-11T11:04:07;98852.69;;;25.91;16.18
63321;BME280;49449;48.800;9.534;2022-08-11T11:06:47;98866.59;;;26.28;16.13
63321;BME280;49449;48.800;9.534;2022-08-11T11:09:18;98864.03;;;26.61;15.52
63321;BME280;49449;48.800;9.534;2022-08-11T11:11:49;98876.16;;;26.55;15.20
63321;BME280;49449;48.800;9.534;2022-08-11T11:14:40;98851.41;;;26.35;15.79
63321;BME280;49449;48.800;9.534;2022-08-11T11:17:27;98853.31;;;26.73;15.33
63321;BME280;49449;48.800;9.534;2022-08-11T11:20:18;98862.56;;;26.72;15.24
63321;BME280;49449;48.800;9.534;2022-08-11T11:22:50;98853.66;;;26.93;14.91
63321;BME280;49449;48.800;9.534;2022-08-11T11:25:24;98846.78;;;27.16;15.14
63321;BME280;49449;48.800;9.534;2022-08-11T11:28:13;98845.63;;;27.26;15.27
63321;BME280;49449;48.800;9.534;2022-08-11T11:30:56;98856.56;;;26.88;15.17
63321;BME280;49449;48.800;9.534;2022-08-11T11:33:41;98841.63;;;27.03;14.59
63321;BME280;49449;48.800;9.534;2022-08-11T11:36:15;98841.22;;;27.13;14.56
63321;BME280;49449;48.800;9.534;2022-08-11T11:38:50;98837.94;;;26.86;14.68
63321;BME280;49449;48.800;9.534;2022-08-11T11:41:22;98829.94;;;27.11;14.58
63321;BME280;49449;48.800;9.534;2022-08-11T11:43:54;98836.03;;;27.29;14.78
63321;BME280;49449;48.800;9.534;2022-08-11T11:46:26;98832.38;;;27.04;14.70
63321;BME280;49449;48.800;9.534;2022-08-11T11:48:56;98824.31;;;26.95;14.78
63321;BME280;49449;48.800;9.534;2022-08-11T11:51:26;98825.53;;;27.06;14.83
63321;BME280;49449;48.800;9.534;2022-08-11T11:53:54;98830.38;;;26.92;14.99
63321;BME280;49449;48.800;9.534;2022-08-11T11:56:23;98836.50;;;27.10;15.00
63321;BME280;49449;48.800;9.534;2022-08-11T11:58:53;98824.75;;;27.18;14.80
63321;BME280;49449;48.800;9.534;2022-08-11T12:01:41;98824.19;;;27.12;14.75
63321;BME280;49449;48.800;9.534;2022-08-11T12:04:11;98812.47;;;27.42;15.18
63321;BME280;49449;48.800;9.534;2022-08-11T12:06:40;98818.09;;;27.15;14.80
63321;BME280;49449;48.800;9.534;2022-08-11T12:09:10;98810.38;;;27.26;15.06
63321;BME280;49449;48.800;9.534;2022-08-11T12:11:41;98817.72;;;27.26;14.48
63321;BME280;49449;48.800;9.534;2022-08-11T12:14:26;98811.75;;;26.90;14.46
63321;BME280;49449;48.800;9.534;2022-08-11T12:16:56;98812.41;;;27.08;14.84
63321;BME280;49449;48.800;9.534;2022-08-11T12:19:26;98811.97;;;27.06;15.04
63321;BME280;49449;48.800;9.534;2022-08-11T12:21:55;98815.47;;;27.07;14.75
63321;BME280;49449;48.800;9.534;2022-08-11T12:24:41;98811.69;;;26.99;15.49
63321;BME280;49449;48.800;9.534;2022-08-11T12:27:29;98801.72;;;27.33;14.88
63321;BME280;49449;48.800;9.534;2022-08-11T12:29:59;98793.63;;;27.58;13.62
63321;BME280;49449;48.800;9.534;2022-08-11T12:32:31;98778.72;;;27.64;14.35
63321;BME280;49449;48.800;9.534;2022-08-11T12:35:01;98779.50;;;27.64;14.93
63321;BME280;49449;48.800;9.534;2022-08-11T12:37:30;98796.75;;;27.35;14.77
63321;BME280;49449;48.800;9.534;2022-08-11T12:40:01;98792.34;;;27.43;14.43
63321;BME280;49449;48.800;9.534;2022-08-11T12:42:47;98789.22;;;27.19;14.54
63321;BME280;49449;48.800;9.534;2022-08-11T12:45:36;98775.66;;;27.65;14.14
63321;BME280;49449;48.800;9.534;2022-08-11T12:48:11;98773.16;;;27.60;14.32
63321;BME280;49449;48.800;9.534;2022-08-11T12:51:01;98780.50;;;27.47;14.48
63321;BME280;49449;48.800;9.534;2022-08-11T12:53:52;98797.81;;;27.22;14.12
63321;BME280;49449;48.800;9.534;2022-08-11T12:56:21;98786.63;;;27.23;14.22
63321;BME280;49449;48.800;9.534;2022-08-11T12:59:08;98773.00;;;27.11;14.57
63321;BME280;49449;48.800;9.534;2022-08-11T13:01:54;98775.31;;;27.21;14.25
63321;BME280;49449;48.800;9.534;2022-08-11T13:04:42;98764.03;;;26.98;14.10
63321;BME280;49449;48.800;9.534;2022-08-11T13:07:21;98755.34;;;27.26;13.86
63321;BME280;49449;48.800;9.534;2022-08-11T13:09:51;98752.66;;;27.26;13.77
63321;BME280;49449;48.800;9.534;2022-08-11T13:12:22;98743.91;;;27.20;14.26
63321;BME280;49449;48.800;9.534;2022-08-11T13:15:10;98737.22;;;27.51;13.93
63321;BME280;49449;48.800;9.534;2022-08-11T13:17:39;98733.25;;;27.61;14.02
63321;BME280;49449;48.800;9.534;2022-08-11T13:20:11;98723.47;;;27.81;14.60
63321;BME280;49449;48.800;9.534;2022-08-11T13:22:41;98737.94;;;27.72;14.07
63321;BME280;49449;48.800;9.534;2022-08-11T13:25:11;98751.28;;;27.32;13.81
63321;BME280;49449;48.800;9.534;2022-08-11T13:27:42;98736.53;;;27.42;14.12
63321;BME280;49449;48.800;9.534;2022-08-11T13:30:12;98746.41;;;27.25;13.79
63321;BME280;49449;48.800;9.534;2022-08-11T13:33:00;98731.00;;;27.50;13.41
63321;BME280;49449;48.800;9.534;2022-08-11T13:35:31;98741.94;;;27.42;13.89
63321;BME280;49449;48.800;9.534;2022-08-11T13:38:01;98752.66;;;27.26;13.87
63321;BME280;49449;48.800;9.534;2022-08-11T13:40:32;98746.97;;;27.18;13.66
63321;BME280;49449;48.800;9.534;2022-08-11T13:43:19;98738.41;;;27.41;13.83
63321;BME280;49449;48.800;9.534;2022-08-11T13:45:50;98720.16;;;27.63;13.41
63321;BME280;49449;48.800;9.534;2022-08-11T13:48:39;98718.16;;;27.84;13.85
63321;BME280;49449;48.800;9.534;2022-08-11T13:51:09;98699.16;;;27.97;13.29
63321;BME280;49449;48.800;9.534;2022-08-11T13:54:02;98714.63;;;27.71;13.44
63321;BME280;49449;48.800;9.534;2022-08-11T13:56:32;98721.69;;;27.39;13.71
63321;BME280;49449;48.800;9.534;2022-08-11T13:59:01;98714.72;;;27.50;13.26
63321;BME280;49449;48.800;9.534;2022-08-11T14:01:32;98712.38;;;27.61;13.41
63321;BME280;49449;48.800;9.534;2022-08-11T14:04:06;98709.53;;;27.58;13.41
63321;BME280;49449;48.800;9.534;2022-08-11T14:06:37;98705.22;;;27.69;13.75
63321;BME280;49449;48.800;9.534;2022-08-11T14:09:08;98701.66;;;27.89;13.70
63321;BME280;49449;48.800;9.534;2022-08-11T14:11:39;98699.84;;;27.81;13.21
63321;BME280;49449;48.800;9.534;2022-08-11T14:14:26;98687.84;;;27.94;13.73
63321;BME280;49449;48.800;9.534;2022-08-11T14:17:02;98691.59;;;27.90;13.24
63321;BME280;49449;48.800;9.534;2022-08-11T14:19:34;98692.81;;;27.92;13.16
63321;BME280;49449;48.800;9.534;2022-08-11T14:22:05;98683.22;;;27.83;12.84
63321;BME280;49449;48.800;9.534;2022-08-11T14:24:34;98688.94;;;27.69;13.37
63321;BME280;49449;48.800;9.534;2022-08-11T14:27:04;98687.81;;;27.45;13.01
63321;BME280;49449;48.800;9.534;2022-08-11T14:29:33;98692.44;;;27.11;13.47
63321;BME280;49449;48.800;9.534;2022-08-11T14:32:07;98685.00;;;27.54;13.04
63321;BME280;49449;48.800;9.534;2022-08-11T14:34:35;98687.59;;;27.50;13.29
63321;BME280;49449;48.800;9.534;2022-08-11T14:37:07;98677.53;;;27.51;13.09
63321;BME280;49449;48.800;9.534;2022-08-11T14:39:40;98682.63;;;27.52;12.66